Kirov, Russia
Current Conditions -  °F | °C
As of 12:00 AM on Saturday 01 Nov 2014 (Local Time) from UWKS Reporting Station
Overcast Overcast  
Wind Chill: 28°   Ceiling: 2600
Heat Index: 34°   Visibility: 4mi
Dew Point: 30°   Wind: 7mph
Humidity: 87%   Direction: 330°NNW
Pressure: 29.97"   Gusts: NA
Location:  58.6°N, 49.66°E
Report Text: UWKS 312000Z 33003MPS 6000 BKN026CB OVC066 01/M01 Q1015 NOSIGRMK QFE747 24190158
Loading
Personal Weather Stations






























Interactive Weather Map
Tropical Storm Tracking
New forecast layout! Learn more

10-Day Weather Forecast

Advertisements
Track Severe Weather on mobile